Time;durP1;ratioP1;P1;durP2;ratioP2;P2;SDS_P1;SDS_P2;PMS_P1;PMS_P2;Temp;Humidity;BMP_temperature;BMP_pressure;BME280_temperature;BME280_humidity;BME280_pressure;Samples;Min_cycle;Max_cycle;Signal;HPM_P1;HPM_P2
2023/12/15 00:00:32;;;;;;;13.03;8.57;;;8.90;99.90;;;;;;4992476;28;20429;-28
2023/12/15 00:02:58;;;;;;;11.00;8.30;;;8.80;99.90;;;;;;4994591;28;20463;-28
2023/12/15 00:05:26;;;;;;;11.90;7.97;;;8.80;99.90;;;;;;4997563;28;20462;-28
2023/12/15 00:07:52;;;;;;;13.33;9.30;;;8.80;99.90;;;;;;4979141;28;20496;-29
2023/12/15 00:10:19;;;;;;;13.37;8.23;;;8.90;99.90;;;;;;4959582;28;20441;-29
2023/12/15 00:12:45;;;;;;;12.33;9.17;;;8.80;99.90;;;;;;4960872;28;20428;-28
2023/12/15 00:15:14;;;;;;;13.03;8.57;;;8.80;99.90;;;;;;4991762;28;20522;-28
2023/12/15 00:17:40;;;;;;;12.43;8.30;;;8.80;99.90;;;;;;4987964;28;20571;-29
2023/12/15 00:20:07;;;;;;;10.43;7.93;;;8.80;99.90;;;;;;4979179;28;21042;-28
2023/12/15 00:22:35;;;;;;;11.73;8.67;;;8.80;99.90;;;;;;4978851;28;20449;-28
2023/12/15 00:25:01;;;;;;;11.33;9.03;;;8.80;99.90;;;;;;4960869;28;20464;-28
2023/12/15 00:27:27;;;;;;;12.60;8.80;;;8.80;99.90;;;;;;4979361;28;20911;-28
2023/12/15 00:29:53;;;;;;;11.40;8.23;;;8.80;99.90;;;;;;4980021;28;20440;-28
2023/12/15 00:32:22;;;;;;;10.83;8.97;;;8.80;99.90;;;;;;4997992;28;20456;-28
2023/12/15 00:34:52;;;;;;;11.63;8.40;;;8.80;99.90;;;;;;4963423;28;20464;-28
2023/12/15 00:37:20;;;;;;;11.80;8.47;;;8.80;99.90;;;;;;4980390;28;20631;-29
2023/12/15 00:39:47;;;;;;;12.03;8.70;;;8.80;99.90;;;;;;4996494;28;20474;-28
2023/12/15 00:42:13;;;;;;;11.30;8.60;;;8.80;99.90;;;;;;4992045;28;20437;-28
2023/12/15 00:44:43;;;;;;;9.70;7.93;;;8.80;99.90;;;;;;4993766;28;20480;-28
2023/12/15 00:47:14;;;;;;;13.53;8.80;;;8.80;99.90;;;;;;5083765;23;20503;-30
2023/12/15 00:49:43;;;;;;;10.43;8.50;;;8.80;99.90;;;;;;4993480;28;21048;-31
2023/12/15 00:52:11;;;;;;;12.40;8.97;;;8.80;99.90;;;;;;5016194;28;20436;-32
2023/12/15 00:54:40;;;;;;;10.67;7.57;;;8.80;99.90;;;;;;4982113;28;20506;-30
2023/12/15 00:57:06;;;;;;;11.10;8.50;;;8.80;99.90;;;;;;5017239;28;21310;-30
2023/12/15 00:59:32;;;;;;;11.13;8.83;;;8.80;99.90;;;;;;5015223;28;20429;-29
2023/12/15 01:01:58;;;;;;;10.20;8.33;;;8.80;99.90;;;;;;4992242;28;21092;-31
2023/12/15 01:04:24;;;;;;;10.00;8.10;;;8.80;99.90;;;;;;5000690;28;20463;-29
2023/12/15 01:06:52;;;;;;;10.57;8.27;;;8.80;99.90;;;;;;5015289;28;20458;-30
2023/12/15 01:09:19;;;;;;;11.20;8.50;;;8.80;99.90;;;;;;5016358;28;20451;-32
2023/12/15 01:11:44;;;;;;;11.30;8.80;;;8.80;99.90;;;;;;4982163;28;20443;-29
2023/12/15 01:14:11;;;;;;;14.60;8.60;;;8.80;99.90;;;;;;5009858;28;20482;-32
2023/12/15 01:16:49;;;;;;;9.77;7.60;;;8.80;99.90;;;;;;4975011;28;20570;-34
2023/12/15 01:19:17;;;;;;;12.03;7.83;;;8.80;99.90;;;;;;5013200;28;20440;-30
2023/12/15 01:21:46;;;;;;;13.27;8.70;;;8.80;99.90;;;;;;5016824;28;20435;-29
2023/12/15 01:24:12;;;;;;;13.47;8.90;;;8.80;99.90;;;;;;5014999;28;21396;-38
2023/12/15 01:26:38;;;;;;;9.80;7.87;;;8.80;99.90;;;;;;5015664;28;20498;-30
2023/12/15 01:29:04;;;;;;;11.03;7.70;;;8.80;99.90;;;;;;4991715;28;20444;-32
2023/12/15 01:31:31;;;;;;;10.27;8.17;;;8.80;99.90;;;;;;5014834;28;20441;-29
2023/12/15 01:33:58;;;;;;;10.10;8.27;;;8.80;99.90;;;;;;5003676;28;20450;-31
2023/12/15 01:36:28;;;;;;;9.60;7.47;;;8.80;99.90;;;;;;5002491;28;20570;-31
2023/12/15 01:38:57;;;;;;;10.70;7.70;;;8.80;99.90;;;;;;5021497;28;20485;-34
2023/12/15 01:41:23;;;;;;;10.80;8.67;;;8.80;99.90;;;;;;5002799;28;20498;-34
2023/12/15 01:43:49;;;;;;;11.33;7.97;;;8.80;99.90;;;;;;5007104;28;20911;-32
2023/12/15 01:46:15;;;;;;;9.87;8.33;;;8.80;99.90;;;;;;5006939;28;20453;-31
2023/12/15 01:48:44;;;;;;;10.93;8.80;;;8.80;99.90;;;;;;5018344;28;20486;-30
2023/12/15 01:51:14;;;;;;;9.97;7.13;;;8.80;99.90;;;;;;4978698;28;20446;-28
2023/12/15 01:53:43;;;;;;;10.73;8.37;;;8.80;99.90;;;;;;5011678;28;20460;-32
2023/12/15 01:56:12;;;;;;;9.83;7.37;;;8.80;99.90;;;;;;5015535;28;20659;-32
2023/12/15 01:58:42;;;;;;;10.10;7.97;;;8.70;99.90;;;;;;5023297;28;20519;-30
2023/12/15 02:01:10;;;;;;;8.47;6.87;;;8.80;99.90;;;;;;4997711;28;20427;-29
2023/12/15 02:03:38;;;;;;;9.53;6.90;;;8.80;99.90;;;;;;5019490;28;20540;-29
2023/12/15 02:06:06;;;;;;;12.93;8.03;;;8.80;99.90;;;;;;4992303;28;20452;-29
2023/12/15 02:08:34;;;;;;;9.70;7.27;;;8.80;99.90;;;;;;4977734;28;21193;-29
2023/12/15 02:11:02;;;;;;;11.50;7.70;;;8.70;99.90;;;;;;4996558;28;20432;-31
2023/12/15 02:13:28;;;;;;;8.83;7.53;;;8.80;99.90;;;;;;5006249;28;20494;-33
2023/12/15 02:15:59;;;;;;;9.00;6.93;;;8.80;99.90;;;;;;5002602;28;21094;-31
2023/12/15 02:18:25;;;;;;;11.83;7.53;;;8.80;99.90;;;;;;5015000;28;20451;-30
2023/12/15 02:20:53;;;;;;;9.60;7.77;;;8.70;99.90;;;;;;5018725;28;20530;-31
2023/12/15 02:23:19;;;;;;;9.90;7.60;;;8.80;99.90;;;;;;4998561;28;20432;-33
2023/12/15 02:25:45;;;;;;;10.77;8.27;;;8.80;99.90;;;;;;4983825;28;20487;-31
2023/12/15 02:28:13;;;;;;;11.83;7.33;;;8.80;99.90;;;;;;5001964;28;20994;-33
2023/12/15 02:30:39;;;;;;;9.63;7.47;;;8.80;99.90;;;;;;4999427;28;20579;-32
2023/12/15 02:33:05;;;;;;;9.30;7.60;;;8.80;99.90;;;;;;5017628;28;20951;-32
2023/12/15 02:35:35;;;;;;;10.63;6.90;;;8.80;99.90;;;;;;4999847;28;20451;-31
2023/12/15 02:38:07;;;;;;;11.73;7.00;;;8.70;99.90;;;;;;4989721;28;20487;-31
2023/12/15 02:40:36;;;;;;;9.27;7.50;;;8.80;99.90;;;;;;5019200;28;20451;-29
2023/12/15 02:43:05;;;;;;;9.43;7.07;;;8.80;99.90;;;;;;5019913;28;20419;-31
2023/12/15 02:45:31;;;;;;;9.83;7.60;;;8.80;99.90;;;;;;5020339;28;20550;-32
2023/12/15 02:47:59;;;;;;;9.27;8.20;;;8.80;99.90;;;;;;4997490;28;20769;-28
2023/12/15 02:50:27;;;;;;;10.07;7.30;;;8.80;99.90;;;;;;5000848;28;20825;-32
2023/12/15 02:52:55;;;;;;;10.10;7.13;;;8.80;99.90;;;;;;5016523;28;20435;-32
2023/12/15 02:55:24;;;;;;;8.03;6.90;;;8.80;99.90;;;;;;5013479;28;20593;-30
2023/12/15 02:57:52;;;;;;;8.03;6.80;;;8.70;99.90;;;;;;4997480;28;20483;-32
2023/12/15 03:00:18;;;;;;;8.60;6.83;;;8.80;99.90;;;;;;5008956;28;20432;-32
2023/12/15 03:02:44;;;;;;;10.17;7.20;;;8.70;99.90;;;;;;4964991;28;20461;-31
2023/12/15 03:05:10;;;;;;;9.77;7.17;;;8.80;99.90;;;;;;4985506;28;20447;-26
2023/12/15 03:07:36;;;;;;;9.67;7.10;;;8.80;99.90;;;;;;5021530;28;20801;-29
2023/12/15 03:10:02;;;;;;;9.37;7.40;;;8.80;99.90;;;;;;5021697;28;21142;-31
2023/12/15 03:12:32;;;;;;;7.40;6.53;;;8.80;99.90;;;;;;5022320;28;20485;-32
2023/12/15 03:14:58;;;;;;;13.13;7.40;;;8.80;99.90;;;;;;5021978;28;20505;-29
2023/12/15 03:17:24;;;;;;;9.60;7.07;;;8.80;99.90;;;;;;5022613;28;20463;-30
2023/12/15 03:19:53;;;;;;;8.60;6.60;;;8.80;99.90;;;;;;5021652;28;20965;-30
2023/12/15 03:22:18;;;;;;;10.53;7.03;;;8.80;99.90;;;;;;5022047;28;20428;-31
2023/12/15 03:24:44;;;;;;;14.07;7.40;;;8.70;99.90;;;;;;5022613;28;20454;-34
2023/12/15 03:27:10;;;;;;;9.53;7.57;;;8.80;99.90;;;;;;5004760;28;20444;-34
2023/12/15 03:29:36;;;;;;;9.60;7.60;;;8.80;99.90;;;;;;5022247;28;20428;-36
2023/12/15 03:32:10;;;;;;;8.97;6.80;;;8.70;99.90;;;;;;5041787;23;20486;-84
2023/12/15 03:34:38;;;;;;;9.80;6.50;;;8.80;99.90;;;;;;4973568;28;20464;-84
2023/12/15 03:37:04;;;;;;;11.00;7.00;;;8.70;99.90;;;;;;4948443;28;20564;-85
2023/12/15 03:39:31;;;;;;;9.40;7.47;;;8.80;99.90;;;;;;4945659;28;20438;-84
2023/12/15 03:41:57;;;;;;;9.10;7.30;;;8.80;99.90;;;;;;4964389;28;20988;-85
2023/12/15 03:44:23;;;;;;;9.90;7.17;;;8.80;99.90;;;;;;4945208;28;20442;-85
2023/12/15 03:46:49;;;;;;;10.17;7.20;;;8.70;99.90;;;;;;4956541;28;20457;-84
2023/12/15 03:49:16;;;;;;;8.73;6.67;;;8.70;99.90;;;;;;4947623;28;20438;-84
2023/12/15 03:51:46;;;;;;;10.17;7.53;;;8.80;99.90;;;;;;4950656;28;20460;-85
2023/12/15 03:54:15;;;;;;;7.87;6.97;;;8.70;99.90;;;;;;4948095;28;21178;-84
2023/12/15 03:56:41;;;;;;;12.13;7.43;;;8.70;99.90;;;;;;4954309;28;20466;-85
2023/12/15 03:59:09;;;;;;;8.83;7.93;;;8.70;99.90;;;;;;4953729;28;20963;-85
2023/12/15 04:01:36;;;;;;;9.27;6.80;;;8.80;99.90;;;;;;4961616;28;20438;-85
2023/12/15 04:04:02;;;;;;;9.80;7.90;;;8.80;99.90;;;;;;4963752;28;20452;-84
2023/12/15 04:06:28;;;;;;;10.23;8.40;;;8.80;99.90;;;;;;4969175;28;20992;-85
2023/12/15 04:08:55;;;;;;;8.47;7.00;;;8.70;99.90;;;;;;4974601;28;20476;-84
2023/12/15 04:11:21;;;;;;;11.13;7.70;;;8.80;99.90;;;;;;4964299;28;20447;-84
2023/12/15 04:13:48;;;;;;;9.20;7.40;;;8.70;99.90;;;;;;4948875;28;20997;-84
2023/12/15 04:16:15;;;;;;;8.13;7.10;;;8.70;99.90;;;;;;4944524;28;20919;-84
2023/12/15 04:18:40;;;;;;;10.00;7.90;;;8.80;99.90;;;;;;4963389;28;20436;-84
2023/12/15 04:21:07;;;;;;;9.73;7.67;;;8.80;99.90;;;;;;4964091;28;20441;-85
2023/12/15 04:23:33;;;;;;;9.47;7.30;;;8.70;99.90;;;;;;4964818;28;20446;-85
2023/12/15 04:26:03;;;;;;;8.10;7.30;;;8.70;99.90;;;;;;4944247;28;20440;-85
2023/12/15 04:28:31;;;;;;;9.47;7.63;;;8.70;99.90;;;;;;4940847;28;20451;-84
2023/12/15 04:30:57;;;;;;;10.30;7.60;;;8.80;99.90;;;;;;4962935;28;20448;-84
2023/12/15 04:33:23;;;;;;;9.17;6.67;;;8.80;99.90;;;;;;4965598;28;20472;-84
2023/12/15 04:35:52;;;;;;;9.50;7.07;;;8.80;99.90;;;;;;4949383;28;20977;-85
2023/12/15 04:38:17;;;;;;;9.50;7.00;;;8.80;99.90;;;;;;4952026;28;20445;-85
2023/12/15 04:40:44;;;;;;;9.90;7.83;;;8.80;99.90;;;;;;4981357;28;20814;-84
2023/12/15 04:43:10;;;;;;;7.97;7.17;;;8.70;99.90;;;;;;4978315;28;20453;-84
2023/12/15 04:45:37;;;;;;;9.57;7.40;;;8.70;99.90;;;;;;4946807;28;20437;-84
2023/12/15 04:48:03;;;;;;;12.40;7.97;;;8.80;99.90;;;;;;4965700;28;20440;-85
2023/12/15 04:50:30;;;;;;;8.53;7.50;;;8.80;99.90;;;;;;4947603;28;20438;-85
2023/12/15 04:52:56;;;;;;;9.13;7.67;;;8.80;99.90;;;;;;4967368;28;20566;-84
2023/12/15 04:55:22;;;;;;;10.70;7.10;;;8.80;99.90;;;;;;4948736;28;20535;-84
2023/12/15 04:57:51;;;;;;;8.00;6.93;;;8.70;99.90;;;;;;4981152;28;20504;-84
2023/12/15 05:00:17;;;;;;;9.20;7.40;;;8.80;99.90;;;;;;4943984;28;20462;-85
2023/12/15 05:02:44;;;;;;;8.33;6.60;;;8.80;99.90;;;;;;4957963;28;20604;-84
2023/12/15 05:05:10;;;;;;;9.13;7.97;;;8.80;99.90;;;;;;4970059;28;20491;-84
2023/12/15 05:07:36;;;;;;;7.83;6.73;;;8.70;99.90;;;;;;4988613;28;20420;-84
2023/12/15 05:10:03;;;;;;;10.63;7.13;;;8.80;99.90;;;;;;4961941;28;20903;-84
2023/12/15 05:12:35;;;;;;;9.53;6.40;;;8.80;99.90;;;;;;4960281;28;20469;-85
2023/12/15 05:15:05;;;;;;;8.40;7.43;;;8.80;99.90;;;;;;4958737;28;20492;-84
2023/12/15 05:17:32;;;;;;;7.97;6.93;;;8.80;99.90;;;;;;4973995;28;20473;-84
2023/12/15 05:19:58;;;;;;;7.67;6.47;;;8.80;99.90;;;;;;4980239;28;20629;-84
2023/12/15 05:22:26;;;;;;;10.97;6.70;;;8.80;99.90;;;;;;4959370;28;20524;-84
2023/12/15 05:24:53;;;;;;;7.60;6.63;;;8.80;99.90;;;;;;4948545;28;20855;-84
2023/12/15 05:27:19;;;;;;;10.30;7.73;;;8.80;99.90;;;;;;4977055;28;20838;-84
2023/12/15 05:29:46;;;;;;;7.93;7.13;;;8.80;99.90;;;;;;4966561;28;20492;-85
2023/12/15 05:32:13;;;;;;;9.03;6.80;;;8.80;99.90;;;;;;4945919;28;20477;-84
2023/12/15 05:34:41;;;;;;;8.40;7.10;;;8.80;99.90;;;;;;4951551;28;20464;-85
2023/12/15 05:37:09;;;;;;;8.73;7.80;;;8.80;99.90;;;;;;4966445;28;20477;-84
2023/12/15 05:39:37;;;;;;;7.03;6.30;;;8.80;99.90;;;;;;4973908;28;20591;-84
2023/12/15 05:42:04;;;;;;;7.93;7.00;;;8.80;99.90;;;;;;4968822;28;20428;-84
2023/12/15 05:44:30;;;;;;;8.97;6.47;;;8.80;99.90;;;;;;4999681;28;20440;-84
2023/12/15 05:46:57;;;;;;;7.90;6.60;;;8.80;99.90;;;;;;4947047;28;20443;-84
2023/12/15 05:49:24;;;;;;;8.27;6.77;;;8.80;99.90;;;;;;4962099;28;20520;-84
2023/12/15 05:51:50;;;;;;;10.90;7.07;;;8.80;99.90;;;;;;4955146;28;20808;-84
2023/12/15 05:54:17;;;;;;;7.93;6.77;;;8.80;99.90;;;;;;4947683;28;20453;-84
2023/12/15 05:56:43;;;;;;;8.83;7.33;;;8.80;99.90;;;;;;4949312;28;20560;-84
2023/12/15 05:59:09;;;;;;;13.20;7.03;;;8.80;99.90;;;;;;4970982;28;20539;-84
2023/12/15 06:01:35;;;;;;;9.57;7.73;;;8.80;99.90;;;;;;4967888;28;20646;-84
2023/12/15 06:04:04;;;;;;;10.73;8.03;;;8.80;99.90;;;;;;4944056;28;20461;-85
2023/12/15 06:06:32;;;;;;;8.90;7.60;;;8.80;99.90;;;;;;4956716;28;21554;-84
2023/12/15 06:09:01;;;;;;;8.97;6.77;;;8.80;99.90;;;;;;4946030;28;21308;-85
2023/12/15 06:11:27;;;;;;;10.30;7.90;;;8.80;99.90;;;;;;4970532;28;20498;-84
2023/12/15 06:13:56;;;;;;;11.60;8.60;;;8.80;99.90;;;;;;4947022;28;20467;-84
2023/12/15 06:16:22;;;;;;;9.57;7.80;;;8.80;99.90;;;;;;4945791;28;20512;-85
2023/12/15 06:18:49;;;;;;;9.80;7.67;;;8.80;99.90;;;;;;4966252;28;20545;-85
2023/12/15 06:21:26;;;;;;;10.90;8.67;;;8.80;99.90;;;;;;4965460;28;20452;-86
2023/12/15 06:23:53;;;;;;;11.60;8.20;;;8.80;99.90;;;;;;4970204;28;20449;-85
2023/12/15 06:26:20;;;;;;;12.63;8.33;;;8.80;99.90;;;;;;4963556;28;20516;-85
2023/12/15 06:28:47;;;;;;;9.97;7.90;;;8.80;99.90;;;;;;4959186;28;20432;-84
2023/12/15 06:31:14;;;;;;;10.43;8.40;;;8.80;99.90;;;;;;4959631;28;20809;-85
2023/12/15 06:33:40;;;;;;;9.33;7.50;;;8.80;99.90;;;;;;4964257;28;20457;-84
2023/12/15 06:36:10;;;;;;;9.63;7.63;;;8.80;99.90;;;;;;4944516;28;20915;-84
2023/12/15 06:38:38;;;;;;;11.60;8.53;;;8.80;99.90;;;;;;4969840;28;20438;-84
2023/12/15 06:41:05;;;;;;;11.80;8.80;;;8.80;99.90;;;;;;4940844;28;20805;-85
2023/12/15 06:43:31;;;;;;;14.67;9.33;;;8.80;99.90;;;;;;4967475;28;20462;-85
2023/12/15 06:45:58;;;;;;;12.80;9.10;;;8.80;99.90;;;;;;4975630;28;20429;-84
2023/12/15 06:48:24;;;;;;;12.90;8.40;;;8.80;99.90;;;;;;4959922;28;20454;-84
2023/12/15 06:50:50;;;;;;;11.60;8.20;;;8.80;99.90;;;;;;4964606;28;20446;-84
2023/12/15 06:53:17;;;;;;;12.10;9.27;;;8.80;99.90;;;;;;4954470;28;20545;-85
2023/12/15 06:55:44;;;;;;;10.80;8.87;;;8.80;99.90;;;;;;4951378;28;20445;-84
2023/12/15 06:58:10;;;;;;;11.93;8.83;;;8.80;99.90;;;;;;4956976;28;20437;-84
2023/12/15 07:00:39;;;;;;;12.87;8.97;;;8.80;99.90;;;;;;4944827;28;20580;-84
2023/12/15 07:03:07;;;;;;;13.07;9.83;;;8.80;99.90;;;;;;4945967;28;20465;-84
2023/12/15 07:05:35;;;;;;;15.47;9.57;;;8.80;99.90;;;;;;4950004;28;20439;-84
2023/12/15 07:08:03;;;;;;;14.20;9.70;;;8.80;99.90;;;;;;4961538;28;20460;-84
2023/12/15 07:10:29;;;;;;;13.57;9.37;;;8.80;99.90;;;;;;4943526;28;20443;-84
2023/12/15 07:12:56;;;;;;;13.53;9.03;;;8.90;99.90;;;;;;4944485;28;21031;-85
2023/12/15 07:15:22;;;;;;;12.70;9.10;;;8.90;99.90;;;;;;4954300;28;20449;-84
2023/12/15 07:17:48;;;;;;;11.17;8.40;;;8.90;99.90;;;;;;4966256;28;20827;-84
2023/12/15 07:20:14;;;;;;;14.37;9.30;;;8.80;99.90;;;;;;4959401;28;20481;-84
2023/12/15 07:22:42;;;;;;;11.40;8.83;;;8.80;99.90;;;;;;4950430;28;20449;-84
2023/12/15 07:25:09;;;;;;;15.13;10.07;;;8.90;99.90;;;;;;4964495;28;20842;-85
2023/12/15 07:27:38;;;;;;;15.00;9.80;;;8.90;99.90;;;;;;4952856;28;20496;-85
2023/12/15 07:30:05;;;;;;;14.90;10.00;;;8.90;99.90;;;;;;4944851;28;20469;-85
2023/12/15 07:32:31;;;;;;;14.60;9.47;;;8.80;99.90;;;;;;4956473;28;20445;-84
2023/12/15 07:34:58;;;;;;;16.10;8.47;;;8.90;99.90;;;;;;4947805;28;20488;-85
2023/12/15 07:37:25;;;;;;;12.83;8.73;;;8.80;99.90;;;;;;4950671;28;20512;-85
2023/12/15 07:39:51;;;;;;;13.97;9.07;;;8.90;99.90;;;;;;4953256;28;20897;-84
2023/12/15 07:42:17;;;;;;;14.00;9.80;;;8.90;99.90;;;;;;4949148;28;20498;-84
2023/12/15 07:44:43;;;;;;;12.70;8.73;;;8.90;99.90;;;;;;4970067;28;20896;-84
2023/12/15 07:47:11;;;;;;;18.20;9.40;;;8.90;99.90;;;;;;4946210;28;20952;-84
2023/12/15 07:49:37;;;;;;;12.30;8.73;;;8.80;99.90;;;;;;4945761;28;20937;-84
2023/12/15 07:52:05;;;;;;;17.97;9.83;;;8.90;99.90;;;;;;4959467;28;20445;-83
2023/12/15 07:54:31;;;;;;;14.47;10.00;;;8.90;99.90;;;;;;4947045;28;20818;-84
2023/12/15 07:56:57;;;;;;;13.70;9.97;;;8.90;99.90;;;;;;4950968;28;20559;-84
2023/12/15 07:59:24;;;;;;;12.13;9.37;;;8.90;99.90;;;;;;4947519;28;20980;-85
2023/12/15 08:01:55;;;;;;;18.10;9.77;;;8.90;99.90;;;;;;4946768;28;20455;-85
2023/12/15 08:04:22;;;;;;;14.40;9.63;;;8.90;99.90;;;;;;4947155;28;20472;-85
2023/12/15 08:06:49;;;;;;;17.60;10.00;;;8.90;99.90;;;;;;4956473;28;21290;-85
2023/12/15 08:09:15;;;;;;;15.73;10.10;;;8.90;99.90;;;;;;4960312;28;20440;-84
2023/12/15 08:11:42;;;;;;;16.87;9.23;;;8.90;99.90;;;;;;4959025;28;20443;-84
2023/12/15 08:14:11;;;;;;;20.20;9.57;;;8.90;99.90;;;;;;4941774;28;20511;-84
2023/12/15 08:16:37;;;;;;;12.60;9.60;;;8.90;99.90;;;;;;4947672;28;20924;-85
2023/12/15 08:19:05;;;;;;;17.33;10.67;;;8.90;99.90;;;;;;4945337;28;20945;-84
2023/12/15 08:21:31;;;;;;;18.17;10.27;;;8.90;99.90;;;;;;4956727;28;20520;-84
2023/12/15 08:23:57;;;;;;;17.00;10.13;;;8.90;99.90;;;;;;4961466;28;20450;-85
2023/12/15 08:26:28;;;;;;;14.43;9.93;;;8.90;99.90;;;;;;4978416;28;20440;-85
2023/12/15 08:28:55;;;;;;;13.40;9.63;;;8.90;99.90;;;;;;4981687;28;20519;-84
2023/12/15 08:31:23;;;;;;;16.80;9.63;;;8.90;99.90;;;;;;4950095;28;20514;-85
2023/12/15 08:33:50;;;;;;;15.80;9.43;;;8.90;99.90;;;;;;4957814;28;20492;-84
2023/12/15 08:36:16;;;;;;;17.30;10.27;;;8.90;99.90;;;;;;4964476;28;20488;-84
2023/12/15 08:38:42;;;;;;;16.93;9.27;;;8.90;99.90;;;;;;4947130;28;20522;-85
2023/12/15 08:41:09;;;;;;;18.83;10.60;;;8.90;99.90;;;;;;4959764;28;20477;-85
2023/12/15 08:43:35;;;;;;;16.80;10.03;;;8.90;99.90;;;;;;4962164;28;20537;-85
2023/12/15 08:46:02;;;;;;;17.87;8.97;;;8.90;99.90;;;;;;4945647;28;20863;-85
2023/12/15 08:48:31;;;;;;;17.40;10.47;;;8.90;99.90;;;;;;4958539;28;20493;-85
2023/12/15 08:50:58;;;;;;;16.37;10.10;;;8.90;99.90;;;;;;4965600;28;21135;-85
2023/12/15 08:53:25;;;;;;;13.77;9.27;;;8.90;99.90;;;;;;4966846;28;20734;-86
2023/12/15 08:55:51;;;;;;;19.00;11.30;;;8.90;99.90;;;;;;4949726;28;20796;-85
2023/12/15 08:58:18;;;;;;;15.80;10.10;;;9.00;99.90;;;;;;4951077;28;20490;-85
2023/12/15 09:00:45;;;;;;;15.73;11.40;;;8.90;99.90;;;;;;4947859;28;20805;-86
2023/12/15 09:03:13;;;;;;;26.93;11.60;;;9.00;99.90;;;;;;4957717;28;20495;-85
2023/12/15 09:05:44;;;;;;;18.70;11.00;;;9.00;99.90;;;;;;4934409;28;20444;-84
2023/12/15 09:08:14;;;;;;;17.60;11.97;;;9.00;99.90;;;;;;4952569;28;20742;-85
2023/12/15 09:10:43;;;;;;;18.43;10.60;;;9.00;99.90;;;;;;4945174;28;20465;-85
2023/12/15 09:13:11;;;;;;;17.70;12.10;;;9.00;99.90;;;;;;4940402;28;20909;-85
2023/12/15 09:15:37;;;;;;;23.27;11.50;;;9.00;99.90;;;;;;4942549;28;20434;-85
2023/12/15 09:18:04;;;;;;;19.50;11.80;;;9.00;99.90;;;;;;4940575;28;20473;-85
2023/12/15 09:20:31;;;;;;;21.20;10.70;;;9.00;99.90;;;;;;4964325;28;20519;-85
2023/12/15 09:22:57;;;;;;;18.37;12.27;;;9.00;99.90;;;;;;4938511;28;20851;-86
2023/12/15 09:25:23;;;;;;;20.40;11.70;;;9.00;99.90;;;;;;4957306;28;20471;-84
2023/12/15 09:27:49;;;;;;;17.47;11.17;;;9.00;99.90;;;;;;4940750;28;20449;-84
2023/12/15 09:30:16;;;;;;;21.33;11.60;;;9.00;99.90;;;;;;4937208;28;20519;-84
2023/12/15 09:32:42;;;;;;;19.57;12.60;;;9.00;99.90;;;;;;4958286;23;21080;-29
2023/12/15 09:35:35;;;;;;;22.70;12.37;;;9.00;99.90;;;;;;4992218;28;20444;-31
2023/12/15 09:38:03;;;;;;;19.43;11.70;;;9.00;99.90;;;;;;4991185;28;20595;-28
2023/12/15 09:40:34;;;;;;;21.80;12.60;;;9.00;99.90;;;;;;4981224;28;20977;-31
2023/12/15 09:43:03;;;;;;;21.37;11.10;;;9.00;99.90;;;;;;5000115;28;20467;-33
2023/12/15 09:45:30;;;;;;;19.80;12.80;;;9.00;99.90;;;;;;4989884;28;21225;-32
2023/12/15 09:48:02;;;;;;;23.57;11.97;;;9.00;99.90;;;;;;4984190;28;20456;-34
2023/12/15 09:50:33;;;;;;;24.80;13.13;;;9.00;99.90;;;;;;4975649;28;20920;-30
2023/12/15 09:53:04;;;;;;;22.27;13.53;;;9.00;99.90;;;;;;4976239;28;20595;-30
2023/12/15 09:55:31;;;;;;;19.43;13.20;;;9.00;99.90;;;;;;4998817;23;20600;-28
2023/12/15 09:57:59;;;;;;;21.47;13.17;;;9.00;99.90;;;;;;4981327;28;20472;-28
2023/12/15 10:00:25;;;;;;;21.67;12.70;;;9.00;99.90;;;;;;4988383;28;20429;-29
2023/12/15 10:02:51;;;;;;;24.40;13.37;;;9.00;99.90;;;;;;4983085;28;20484;-29
2023/12/15 10:05:21;;;;;;;22.97;12.90;;;9.00;99.90;;;;;;4979514;28;20445;-28
2023/12/15 10:07:47;;;;;;;28.07;14.33;;;9.10;99.90;;;;;;4979109;28;20883;-28
2023/12/15 10:10:18;;;;;;;24.83;13.00;;;9.00;99.90;;;;;;4975021;28;20771;-28
2023/12/15 10:12:45;;;;;;;21.47;12.60;;;9.10;99.90;;;;;;4976629;28;21480;-28
2023/12/15 10:15:11;;;;;;;20.63;13.37;;;9.00;99.90;;;;;;4970612;28;20532;-29
2023/12/15 10:17:40;;;;;;;27.43;13.30;;;9.10;99.90;;;;;;4981045;28;20477;-29
2023/12/15 10:20:10;;;;;;;23.07;14.00;;;9.00;99.90;;;;;;4969554;28;20422;-28
2023/12/15 10:22:38;;;;;;;26.27;12.90;;;9.10;99.90;;;;;;4959076;28;20406;-28
2023/12/15 10:25:16;;;;;;;25.07;14.47;;;9.10;99.90;;;;;;4975975;28;20512;-28
2023/12/15 10:27:42;;;;;;;22.80;13.40;;;9.10;99.90;;;;;;4979707;28;21061;-28
2023/12/15 10:30:09;;;;;;;26.47;14.63;;;9.00;99.90;;;;;;4976431;28;20429;-28
2023/12/15 10:32:38;;;;;;;25.17;15.57;;;9.10;99.90;;;;;;4978845;28;20425;-28
2023/12/15 10:35:04;;;;;;;27.50;13.77;;;9.10;99.90;;;;;;4976600;28;20489;-28
2023/12/15 10:37:33;;;;;;;25.03;14.40;;;9.10;99.90;;;;;;4978924;28;20574;-28
2023/12/15 10:40:02;;;;;;;24.70;14.97;;;9.10;99.90;;;;;;4980130;28;20449;-28
2023/12/15 10:42:32;;;;;;;23.90;15.23;;;9.10;99.90;;;;;;4947010;28;20469;-28
2023/12/15 10:45:01;;;;;;;21.37;13.70;;;9.10;99.90;;;;;;4979795;28;20508;-28
2023/12/15 10:47:27;;;;;;;25.03;13.23;;;9.10;99.90;;;;;;4971367;28;20568;-29
2023/12/15 10:49:56;;;;;;;28.53;13.77;;;9.10;99.90;;;;;;4958681;28;20464;-28
2023/12/15 10:52:27;;;;;;;25.80;14.47;;;9.10;99.90;;;;;;4980135;28;20588;-28
2023/12/15 10:54:59;;;;;;;25.57;14.40;;;9.10;99.90;;;;;;4977007;28;20468;-28
2023/12/15 10:57:25;;;;;;;24.17;14.33;;;9.10;99.90;;;;;;4980262;28;21310;-28
2023/12/15 10:59:51;;;;;;;21.90;13.77;;;9.10;99.90;;;;;;4980292;28;21091;-29
2023/12/15 11:02:19;;;;;;;26.30;14.70;;;9.10;99.90;;;;;;4980763;28;20433;-28
2023/12/15 11:04:49;;;;;;;28.00;17.00;;;9.10;99.90;;;;;;4980448;28;20433;-29
2023/12/15 11:07:24;;;;;;;23.63;14.37;;;9.20;99.90;;;;;;4972545;28;20434;-29
2023/12/15 11:09:54;;;;;;;25.90;14.67;;;9.10;99.90;;;;;;4980501;28;20469;-28
2023/12/15 11:12:28;;;;;;;26.47;15.53;;;9.10;99.90;;;;;;4980901;28;20440;-29
2023/12/15 11:15:00;;;;;;;26.63;14.17;;;9.10;99.90;;;;;;4980084;28;20531;-29
2023/12/15 11:17:31;;;;;;;22.40;14.70;;;9.20;99.90;;;;;;4979038;28;21286;-28
2023/12/15 11:20:20;;;;;;;25.50;14.27;;;9.20;99.90;;;;;;4971928;28;20444;-29
2023/12/15 11:22:52;;;;;;;23.53;15.40;;;9.20;99.90;;;;;;4966389;28;20492;-29
2023/12/15 11:25:24;;;;;;;30.40;13.80;;;9.20;99.90;;;;;;4979698;28;20456;-29
2023/12/15 11:28:00;;;;;;;24.13;14.20;;;9.20;99.90;;;;;;4977916;28;20433;-29
2023/12/15 11:30:31;;;;;;;24.53;14.47;;;9.20;99.90;;;;;;4979914;28;20882;-29
2023/12/15 11:33:00;;;;;;;25.40;14.57;;;9.20;99.90;;;;;;4980245;28;21336;-30
2023/12/15 11:35:33;;;;;;;26.40;14.77;;;9.20;99.90;;;;;;4979000;28;20445;-29
2023/12/15 11:37:59;;;;;;;29.70;16.47;;;9.20;99.90;;;;;;4979458;28;20469;-29
2023/12/15 11:40:29;;;;;;;29.40;16.13;;;9.20;99.90;;;;;;4979407;28;20438;-28
2023/12/15 11:42:57;;;;;;;23.67;14.13;;;9.20;99.90;;;;;;4979173;28;20754;-29
2023/12/15 11:45:26;;;;;;;29.10;16.37;;;9.20;99.90;;;;;;4972079;28;21275;-28
2023/12/15 11:47:54;;;;;;;27.90;17.00;;;9.20;99.90;;;;;;4978674;28;20664;-28
2023/12/15 11:50:21;;;;;;;29.13;15.67;;;9.20;99.90;;;;;;4971113;28;20465;-29
2023/12/15 11:52:51;;;;;;;31.73;16.93;;;9.20;99.90;;;;;;4979518;28;20536;-29
2023/12/15 11:55:17;;;;;;;27.50;16.23;;;9.20;99.90;;;;;;4974523;28;20491;-29
2023/12/15 11:57:46;;;;;;;29.40;16.50;;;9.20;99.90;;;;;;4978597;28;20501;-29
2023/12/15 12:00:14;;;;;;;26.73;15.53;;;9.20;99.90;;;;;;4952966;28;20426;-28
2023/12/15 12:02:46;;;;;;;31.47;16.43;;;9.20;99.90;;;;;;4979065;28;20425;-35
2023/12/15 12:05:14;;;;;;;25.30;15.77;;;9.30;99.90;;;;;;4978977;28;21115;-30
2023/12/15 12:07:40;;;;;;;29.20;15.87;;;9.20;99.90;;;;;;4973097;28;20455;-29
2023/12/15 12:10:07;;;;;;;35.20;18.60;;;9.30;99.90;;;;;;4969543;28;20445;-28
2023/12/15 12:12:33;;;;;;;34.73;17.83;;;9.30;99.90;;;;;;4978929;28;20426;-30
2023/12/15 12:15:07;;;;;;;27.67;16.10;;;9.30;99.90;;;;;;4977696;28;20445;-28
2023/12/15 12:17:37;;;;;;;28.77;17.13;;;9.30;99.90;;;;;;4979115;28;20481;-29
2023/12/15 12:20:10;;;;;;;27.77;16.03;;;9.30;99.90;;;;;;4978803;28;20429;-29
2023/12/15 12:22:43;;;;;;;28.03;16.43;;;9.30;99.90;;;;;;4972724;28;20466;-29
2023/12/15 12:25:15;;;;;;;33.53;18.00;;;9.30;99.90;;;;;;4967562;28;20543;-38
2023/12/15 12:27:42;;;;;;;32.67;17.90;;;9.30;99.90;;;;;;4973303;28;21025;-29
2023/12/15 12:30:13;;;;;;;33.37;17.80;;;9.30;99.90;;;;;;4972896;28;20461;-28
2023/12/15 12:32:43;;;;;;;31.20;16.70;;;9.30;99.90;;;;;;4978486;28;20430;-29
2023/12/15 12:35:09;;;;;;;31.53;16.67;;;9.30;99.90;;;;;;4963681;28;21009;-29
2023/12/15 12:37:36;;;;;;;29.77;16.67;;;9.30;99.90;;;;;;4978240;28;20519;-28
2023/12/15 12:40:05;;;;;;;30.93;16.50;;;9.30;99.90;;;;;;4957136;28;20906;-29
2023/12/15 12:42:33;;;;;;;29.63;17.87;;;9.30;99.90;;;;;;4976901;28;20442;-29
2023/12/15 12:44:59;;;;;;;30.00;17.00;;;9.30;99.90;;;;;;4973443;28;20534;-29
2023/12/15 12:47:26;;;;;;;28.00;16.17;;;9.30;99.90;;;;;;4960111;28;20433;-29